sensor_id;sensor_type;location;lat;lon;timestamp;pressure;altitude;pressure_sealevel;temperature
76713;BMP280;65640;43.154;25.658;2023-09-12T00:01:03;100783.53;;;14.41
76713;BMP280;65640;43.154;25.658;2023-09-12T00:03:30;100788.09;;;14.35
76713;BMP280;65640;43.154;25.658;2023-09-12T00:05:57;100784.75;;;14.29
76713;BMP280;65640;43.154;25.658;2023-09-12T00:08:23;100785.47;;;14.35
76713;BMP280;65640;43.154;25.658;2023-09-12T00:11:03;100789.22;;;14.29
76713;BMP280;65640;43.154;25.658;2023-09-12T00:13:30;100783.19;;;14.28
76713;BMP280;65640;43.154;25.658;2023-09-12T00:15:56;100783.97;;;14.29
76713;BMP280;65640;43.154;25.658;2023-09-12T00:18:21;100778.28;;;14.41
76713;BMP280;65640;43.154;25.658;2023-09-12T00:20:46;100774.16;;;14.16
76713;BMP280;65640;43.154;25.658;2023-09-12T00:23:12;100777.91;;;14.10
76713;BMP280;65640;43.154;25.658;2023-09-12T00:25:37;100771.88;;;14.09
76713;BMP280;65640;43.154;25.658;2023-09-12T00:28:03;100774.38;;;14.19
76713;BMP280;65640;43.154;25.658;2023-09-12T00:30:29;100773.44;;;13.92
76713;BMP280;65640;43.154;25.658;2023-09-12T00:32:54;100780.91;;;14.03
76713;BMP280;65640;43.154;25.658;2023-09-12T00:35:19;100777.13;;;14.09
76713;BMP280;65640;43.154;25.658;2023-09-12T00:37:45;100780.03;;;14.08
76713;BMP280;65640;43.154;25.658;2023-09-12T00:40:10;100777.47;;;14.03
76713;BMP280;65640;43.154;25.658;2023-09-12T00:42:36;100780.00;;;14.13
76713;BMP280;65640;43.154;25.658;2023-09-12T00:45:01;100778.78;;;14.05
76713;BMP280;65640;43.154;25.658;2023-09-12T00:47:27;100782.13;;;14.11
76713;BMP280;65640;43.154;25.658;2023-09-12T00:49:55;100786.53;;;14.15
76713;BMP280;65640;43.154;25.658;2023-09-12T00:52:24;100788.72;;;14.08
76713;BMP280;65640;43.154;25.658;2023-09-12T00:54:50;100785.63;;;14.06
76713;BMP280;65640;43.154;25.658;2023-09-12T00:57:16;100784.97;;;13.96
76713;BMP280;65640;43.154;25.658;2023-09-12T00:59:42;100784.81;;;13.87
76713;BMP280;65640;43.154;25.658;2023-09-12T01:02:08;100791.31;;;13.95
76713;BMP280;65640;43.154;25.658;2023-09-12T01:04:35;100782.19;;;13.87
76713;BMP280;65640;43.154;25.658;2023-09-12T01:07:03;100778.97;;;13.90
76713;BMP280;65640;43.154;25.658;2023-09-12T01:09:28;100782.84;;;13.98
76713;BMP280;65640;43.154;25.658;2023-09-12T01:11:54;100789.03;;;13.88
76713;BMP280;65640;43.154;25.658;2023-09-12T01:14:19;100793.84;;;13.81
76713;BMP280;65640;43.154;25.658;2023-09-12T01:16:45;100783.06;;;13.77
76713;BMP280;65640;43.154;25.658;2023-09-12T01:19:12;100788.59;;;14.00
76713;BMP280;65640;43.154;25.658;2023-09-12T01:25:07;100787.44;;;13.87
76713;BMP280;65640;43.154;25.658;2023-09-12T01:27:35;100788.63;;;13.76
76713;BMP280;65640;43.154;25.658;2023-09-12T01:30:04;100789.13;;;13.78
76713;BMP280;65640;43.154;25.658;2023-09-12T01:32:32;100790.06;;;13.68
76713;BMP280;65640;43.154;25.658;2023-09-12T01:34:58;100786.13;;;13.66
76713;BMP280;65640;43.154;25.658;2023-09-12T01:37:24;100775.72;;;13.56
76713;BMP280;65640;43.154;25.658;2023-09-12T01:39:50;100785.25;;;13.52
76713;BMP280;65640;43.154;25.658;2023-09-12T01:42:18;100796.44;;;13.62
76713;BMP280;65640;43.154;25.658;2023-09-12T01:44:45;100787.69;;;13.67
76713;BMP280;65640;43.154;25.658;2023-09-12T01:47:12;100778.50;;;13.88
76713;BMP280;65640;43.154;25.658;2023-09-12T01:49:47;100787.44;;;13.87
76713;BMP280;65640;43.154;25.658;2023-09-12T01:52:14;100788.06;;;13.79
76713;BMP280;65640;43.154;25.658;2023-09-12T01:54:41;100790.25;;;13.72
76713;BMP280;65640;43.154;25.658;2023-09-12T01:57:08;100787.09;;;13.75
76713;BMP280;65640;43.154;25.658;2023-09-12T01:59:33;100787.44;;;13.68
76713;BMP280;65640;43.154;25.658;2023-09-12T02:01:59;100785.19;;;13.57
76713;BMP280;65640;43.154;25.658;2023-09-12T02:04:25;100784.78;;;13.68
76713;BMP280;65640;43.154;25.658;2023-09-12T02:06:50;100790.31;;;13.67
76713;BMP280;65640;43.154;25.658;2023-09-12T02:09:15;100783.66;;;13.74
76713;BMP280;65640;43.154;25.658;2023-09-12T02:11:41;100786.00;;;13.76
76713;BMP280;65640;43.154;25.658;2023-09-12T02:14:06;100786.78;;;13.76
76713;BMP280;65640;43.154;25.658;2023-09-12T02:16:32;100789.47;;;13.71
76713;BMP280;65640;43.154;25.658;2023-09-12T02:18:57;100790.72;;;13.55
76713;BMP280;65640;43.154;25.658;2023-09-12T02:21:23;100790.84;;;13.45
76713;BMP280;65640;43.154;25.658;2023-09-12T02:23:48;100792.41;;;13.46
76713;BMP280;65640;43.154;25.658;2023-09-12T02:26:13;100787.81;;;13.57
76713;BMP280;65640;43.154;25.658;2023-09-12T02:28:39;100792.84;;;13.53
76713;BMP280;65640;43.154;25.658;2023-09-12T02:31:10;100797.34;;;13.53
76713;BMP280;65640;43.154;25.658;2023-09-12T02:33:37;100797.38;;;13.48
76713;BMP280;65640;43.154;25.658;2023-09-12T02:36:02;100799.47;;;13.51
76713;BMP280;65640;43.154;25.658;2023-09-12T02:38:28;100793.91;;;13.52
76713;BMP280;65640;43.154;25.658;2023-09-12T02:40:53;100792.66;;;13.50
76713;BMP280;65640;43.154;25.658;2023-09-12T02:43:20;100785.28;;;13.47
76713;BMP280;65640;43.154;25.658;2023-09-12T02:45:45;100790.84;;;13.45
76713;BMP280;65640;43.154;25.658;2023-09-12T02:48:11;100790.72;;;13.31
76713;BMP280;65640;43.154;25.658;2023-09-12T02:50:36;100789.16;;;13.30
76713;BMP280;65640;43.154;25.658;2023-09-12T02:53:02;100784.50;;;13.22
76713;BMP280;65640;43.154;25.658;2023-09-12T02:55:27;100781.19;;;13.35
76713;BMP280;65640;43.154;25.658;2023-09-12T02:57:52;100794.44;;;13.30
76713;BMP280;65640;43.154;25.658;2023-09-12T03:00:19;100790.06;;;13.45
76713;BMP280;65640;43.154;25.658;2023-09-12T03:02:45;100784.50;;;13.46
76713;BMP280;65640;43.154;25.658;2023-09-12T03:05:10;100791.63;;;13.46
76713;BMP280;65640;43.154;25.658;2023-09-12T03:07:36;100795.09;;;13.41
76713;BMP280;65640;43.154;25.658;2023-09-12T03:10:01;100795.91;;;13.36
76713;BMP280;65640;43.154;25.658;2023-09-12T03:12:27;100798.38;;;13.28
76713;BMP280;65640;43.154;25.658;2023-09-12T03:14:52;100791.28;;;13.28
76713;BMP280;65640;43.154;25.658;2023-09-12T03:17:18;100792.91;;;13.24
76713;BMP280;65640;43.154;25.658;2023-09-12T03:19:43;100800.44;;;13.31
76713;BMP280;65640;43.154;25.658;2023-09-12T03:22:08;100801.00;;;13.28
76713;BMP280;65640;43.154;25.658;2023-09-12T03:24:34;100793.50;;;13.16
76713;BMP280;65640;43.154;25.658;2023-09-12T03:27:00;100792.84;;;13.29
76713;BMP280;65640;43.154;25.658;2023-09-12T03:29:25;100795.72;;;13.04
76713;BMP280;65640;43.154;25.658;2023-09-12T03:31:51;100801.03;;;12.94
76713;BMP280;65640;43.154;25.658;2023-09-12T03:34:16;100803.72;;;12.89
76713;BMP280;65640;43.154;25.658;2023-09-12T03:36:41;100799.47;;;12.93
76713;BMP280;65640;43.154;25.658;2023-09-12T03:39:07;100800.41;;;13.07
76713;BMP280;65640;43.154;25.658;2023-09-12T03:41:36;100801.53;;;13.01
76713;BMP280;65640;43.154;25.658;2023-09-12T03:44:02;100800.78;;;12.95
76713;BMP280;65640;43.154;25.658;2023-09-12T03:46:27;100800.13;;;12.80
76713;BMP280;65640;43.154;25.658;2023-09-12T03:48:53;100807.81;;;12.66
76713;BMP280;65640;43.154;25.658;2023-09-12T03:51:18;100800.81;;;12.56
76713;BMP280;65640;43.154;25.658;2023-09-12T03:53:44;100807.66;;;12.52
76713;BMP280;65640;43.154;25.658;2023-09-12T03:56:09;100801.88;;;12.55
76713;BMP280;65640;43.154;25.658;2023-09-12T03:58:39;100809.25;;;12.48
76713;BMP280;65640;43.154;25.658;2023-09-12T04:01:05;100798.22;;;12.51
76713;BMP280;65640;43.154;25.658;2023-09-12T04:03:30;100801.66;;;12.47
76713;BMP280;65640;43.154;25.658;2023-09-12T04:05:55;100813.22;;;12.46
76713;BMP280;65640;43.154;25.658;2023-09-12T04:08:21;100812.69;;;12.49
76713;BMP280;65640;43.154;25.658;2023-09-12T04:10:46;100815.81;;;12.46
76713;BMP280;65640;43.154;25.658;2023-09-12T04:13:12;100814.28;;;12.45
76713;BMP280;65640;43.154;25.658;2023-09-12T04:15:37;100818.97;;;12.48
76713;BMP280;65640;43.154;25.658;2023-09-12T04:18:03;100814.00;;;12.51
76713;BMP280;65640;43.154;25.658;2023-09-12T04:20:29;100822.88;;;12.55
76713;BMP280;65640;43.154;25.658;2023-09-12T04:22:54;100827.50;;;12.69
76713;BMP280;65640;43.154;25.658;2023-09-12T04:25:20;100828.53;;;12.78
76713;BMP280;65640;43.154;25.658;2023-09-12T04:27:45;100823.81;;;12.75
76713;BMP280;65640;43.154;25.658;2023-09-12T04:30:11;100830.00;;;12.89
76713;BMP280;65640;43.154;25.658;2023-09-12T04:32:36;100826.28;;;12.95
76713;BMP280;65640;43.154;25.658;2023-09-12T04:35:02;100823.91;;;12.98
76713;BMP280;65640;43.154;25.658;2023-09-12T04:37:28;100828.84;;;13.05
76713;BMP280;65640;43.154;25.658;2023-09-12T04:39:54;100821.34;;;13.17
76713;BMP280;65640;43.154;25.658;2023-09-12T04:42:19;100827.75;;;13.35
76713;BMP280;65640;43.154;25.658;2023-09-12T04:44:45;100820.84;;;13.44
76713;BMP280;65640;43.154;25.658;2023-09-12T04:47:11;100821.78;;;13.53
76713;BMP280;65640;43.154;25.658;2023-09-12T04:49:39;100819.66;;;13.55
76713;BMP280;65640;43.154;25.658;2023-09-12T04:52:05;100829.06;;;13.61
76713;BMP280;65640;43.154;25.658;2023-09-12T04:54:30;100823.53;;;13.63
76713;BMP280;65640;43.154;25.658;2023-09-12T04:56:55;100825.19;;;13.77
76713;BMP280;65640;43.154;25.658;2023-09-12T04:59:21;100829.56;;;13.87
76713;BMP280;65640;43.154;25.658;2023-09-12T05:01:46;100838.34;;;14.01
76713;BMP280;65640;43.154;25.658;2023-09-12T05:04:12;100837.22;;;14.07
76713;BMP280;65640;43.154;25.658;2023-09-12T05:06:37;100832.38;;;14.14
76713;BMP280;65640;43.154;25.658;2023-09-12T05:09:03;100834.88;;;14.24
76713;BMP280;65640;43.154;25.658;2023-09-12T05:11:30;100834.56;;;14.45
76713;BMP280;65640;43.154;25.658;2023-09-12T05:13:55;100829.16;;;14.55
76713;BMP280;65640;43.154;25.658;2023-09-12T05:16:21;100828.91;;;14.70
76713;BMP280;65640;43.154;25.658;2023-09-12T05:18:47;100827.41;;;14.96
76713;BMP280;65640;43.154;25.658;2023-09-12T05:21:14;100831.50;;;15.07
76713;BMP280;65640;43.154;25.658;2023-09-12T05:23:40;100833.56;;;15.24
76713;BMP280;65640;43.154;25.658;2023-09-12T05:26:05;100826.03;;;15.45
76713;BMP280;65640;43.154;25.658;2023-09-12T05:28:31;100822.31;;;15.46
76713;BMP280;65640;43.154;25.658;2023-09-12T05:30:57;100821.34;;;15.55
76713;BMP280;65640;43.154;25.658;2023-09-12T05:33:22;100829.72;;;15.71
76713;BMP280;65640;43.154;25.658;2023-09-12T05:35:47;100827.25;;;15.88
76713;BMP280;65640;43.154;25.658;2023-09-12T05:38:13;100830.63;;;16.02
76713;BMP280;65640;43.154;25.658;2023-09-12T05:40:38;100834.72;;;16.22
76713;BMP280;65640;43.154;25.658;2023-09-12T05:43:04;100834.16;;;16.34
76713;BMP280;65640;43.154;25.658;2023-09-12T05:45:29;100834.16;;;16.56
76713;BMP280;65640;43.154;25.658;2023-09-12T05:47:58;100831.00;;;16.68
76713;BMP280;65640;43.154;25.658;2023-09-12T05:50:23;100829.09;;;16.90
76713;BMP280;65640;43.154;25.658;2023-09-12T05:52:49;100825.28;;;17.05
76713;BMP280;65640;43.154;25.658;2023-09-12T05:55:14;100832.16;;;17.15
76713;BMP280;65640;43.154;25.658;2023-09-12T05:57:40;100828.47;;;17.24
76713;BMP280;65640;43.154;25.658;2023-09-12T06:00:06;100828.19;;;17.34
76713;BMP280;65640;43.154;25.658;2023-09-12T06:02:35;100830.06;;;17.42
76713;BMP280;65640;43.154;25.658;2023-09-12T06:05:00;100830.44;;;17.58
76713;BMP280;65640;43.154;25.658;2023-09-12T06:07:26;100824.50;;;17.70
76713;BMP280;65640;43.154;25.658;2023-09-12T06:09:51;100835.28;;;17.90
76713;BMP280;65640;43.154;25.658;2023-09-12T06:12:17;100835.13;;;18.13
76713;BMP280;65640;43.154;25.658;2023-09-12T06:14:43;100833.09;;;18.35
76713;BMP280;65640;43.154;25.658;2023-09-12T06:17:09;100833.03;;;18.53
76713;BMP280;65640;43.154;25.658;2023-09-12T06:19:34;100833.03;;;18.61
76713;BMP280;65640;43.154;25.658;2023-09-12T06:21:59;100833.59;;;18.75
76713;BMP280;65640;43.154;25.658;2023-09-12T06:24:25;100830.13;;;18.83
76713;BMP280;65640;43.154;25.658;2023-09-12T06:26:50;100835.53;;;19.04
76713;BMP280;65640;43.154;25.658;2023-09-12T06:29:16;100836.53;;;19.20
76713;BMP280;65640;43.154;25.658;2023-09-12T06:31:42;100843.50;;;19.33
76713;BMP280;65640;43.154;25.658;2023-09-12T06:34:07;100841.13;;;19.61
76713;BMP280;65640;43.154;25.658;2023-09-12T06:36:33;100833.03;;;19.78
76713;BMP280;65640;43.154;25.658;2023-09-12T06:38:59;100831.13;;;20.00
76713;BMP280;65640;43.154;25.658;2023-09-12T06:41:26;100840.25;;;20.11
76713;BMP280;65640;43.154;25.658;2023-09-12T06:43:52;100843.88;;;20.27
76713;BMP280;65640;43.154;25.658;2023-09-12T06:46:17;100843.16;;;20.51
76713;BMP280;65640;43.154;25.658;2023-09-12T06:48:44;100844.16;;;20.70
76713;BMP280;65640;43.154;25.658;2023-09-12T06:51:10;100842.75;;;20.85
76713;BMP280;65640;43.154;25.658;2023-09-12T06:53:36;100844.50;;;21.05
76713;BMP280;65640;43.154;25.658;2023-09-12T06:56:07;100845.50;;;21.25
76713;BMP280;65640;43.154;25.658;2023-09-12T06:58:33;100844.56;;;21.45
76713;BMP280;65640;43.154;25.658;2023-09-12T07:01:05;100845.31;;;21.58
76713;BMP280;65640;43.154;25.658;2023-09-12T07:03:35;100844.38;;;21.66
76713;BMP280;65640;43.154;25.658;2023-09-12T07:06:01;100834.28;;;21.87
76713;BMP280;65640;43.154;25.658;2023-09-12T07:08:29;100842.34;;;22.03
76713;BMP280;65640;43.154;25.658;2023-09-12T07:10:55;100842.22;;;22.27
76713;BMP280;65640;43.154;25.658;2023-09-12T07:13:22;100840.53;;;22.50
76713;BMP280;65640;43.154;25.658;2023-09-12T07:15:47;100843.34;;;22.57
76713;BMP280;65640;43.154;25.658;2023-09-12T07:18:12;100843.03;;;22.74
76713;BMP280;65640;43.154;25.658;2023-09-12T07:20:40;100835.22;;;22.85
76713;BMP280;65640;43.154;25.658;2023-09-12T07:23:06;100836.94;;;22.77
76713;BMP280;65640;43.154;25.658;2023-09-12T07:25:38;100840.94;;;23.02
76713;BMP280;65640;43.154;25.658;2023-09-12T07:28:05;100844.94;;;23.28
76713;BMP280;65640;43.154;25.658;2023-09-12T07:30:30;100841.41;;;23.24
76713;BMP280;65640;43.154;25.658;2023-09-12T07:32:55;100838.63;;;23.36
76713;BMP280;65640;43.154;25.658;2023-09-12T07:35:21;100833.53;;;23.50
76713;BMP280;65640;43.154;25.658;2023-09-12T07:37:49;100839.09;;;23.61
76713;BMP280;65640;43.154;25.658;2023-09-12T07:40:14;100840.84;;;23.72
76713;BMP280;65640;43.154;25.658;2023-09-12T07:42:40;100837.34;;;23.87
76713;BMP280;65640;43.154;25.658;2023-09-12T07:45:07;100840.31;;;24.05
76713;BMP280;65640;43.154;25.658;2023-09-12T07:47:32;100830.69;;;24.23
76713;BMP280;65640;43.154;25.658;2023-09-12T07:49:59;100832.00;;;24.33
76713;BMP280;65640;43.154;25.658;2023-09-12T07:52:26;100835.38;;;24.56
76713;BMP280;65640;43.154;25.658;2023-09-12T07:54:52;100832.28;;;24.80
76713;BMP280;65640;43.154;25.658;2023-09-12T07:57:23;100825.91;;;24.88
76713;BMP280;65640;43.154;25.658;2023-09-12T07:59:48;100831.97;;;24.85
76713;BMP280;65640;43.154;25.658;2023-09-12T08:02:13;100823.72;;;24.97
76713;BMP280;65640;43.154;25.658;2023-09-12T08:04:39;100830.09;;;25.15
76713;BMP280;65640;43.154;25.658;2023-09-12T08:07:04;100837.47;;;25.26
76713;BMP280;65640;43.154;25.658;2023-09-12T08:09:54;100827.25;;;25.35
76713;BMP280;65640;43.154;25.658;2023-09-12T08:12:21;100828.19;;;25.53
76713;BMP280;65640;43.154;25.658;2023-09-12T08:14:47;100819.09;;;25.61
76713;BMP280;65640;43.154;25.658;2023-09-12T08:17:12;100833.16;;;25.91
76713;BMP280;65640;43.154;25.658;2023-09-12T08:19:38;100820.31;;;26.14
76713;BMP280;65640;43.154;25.658;2023-09-12T08:22:04;100821.88;;;26.19
76713;BMP280;65640;43.154;25.658;2023-09-12T08:24:30;100817.41;;;26.41
76713;BMP280;65640;43.154;25.658;2023-09-12T08:26:55;100818.31;;;26.55
76713;BMP280;65640;43.154;25.658;2023-09-12T08:29:21;100821.78;;;26.66
76713;BMP280;65640;43.154;25.658;2023-09-12T08:31:46;100815.81;;;26.94
76713;BMP280;65640;43.154;25.658;2023-09-12T08:34:12;100812.75;;;26.99
76713;BMP280;65640;43.154;25.658;2023-09-12T08:36:38;100807.41;;;27.10
76713;BMP280;65640;43.154;25.658;2023-09-12T08:39:04;100807.84;;;27.29
76713;BMP280;65640;43.154;25.658;2023-09-12T08:41:30;100807.44;;;27.31
76713;BMP280;65640;43.154;25.658;2023-09-12T08:43:55;100810.88;;;27.28
76713;BMP280;65640;43.154;25.658;2023-09-12T08:46:22;100807.88;;;27.43
76713;BMP280;65640;43.154;25.658;2023-09-12T08:48:49;100798.25;;;27.53
76713;BMP280;65640;43.154;25.658;2023-09-12T08:51:14;100796.72;;;27.77
76713;BMP280;65640;43.154;25.658;2023-09-12T08:53:40;100800.97;;;27.85
76713;BMP280;65640;43.154;25.658;2023-09-12T08:56:05;100802.13;;;27.98
76713;BMP280;65640;43.154;25.658;2023-09-12T08:58:32;100801.31;;;28.15
76713;BMP280;65640;43.154;25.658;2023-09-12T09:00:57;100796.34;;;28.10
76713;BMP280;65640;43.154;25.658;2023-09-12T09:03:23;100803.22;;;28.25
76713;BMP280;65640;43.154;25.658;2023-09-12T09:05:51;100797.44;;;28.34
76713;BMP280;65640;43.154;25.658;2023-09-12T09:08:17;100789.28;;;28.44
76713;BMP280;65640;43.154;25.658;2023-09-12T09:13:22;100788.44;;;28.68
76713;BMP280;65640;43.154;25.658;2023-09-12T09:15:47;100783.03;;;28.72
76713;BMP280;65640;43.154;25.658;2023-09-12T09:18:12;100786.09;;;28.74
76713;BMP280;65640;43.154;25.658;2023-09-12T09:20:38;100789.56;;;28.82
76713;BMP280;65640;43.154;25.658;2023-09-12T09:23:06;100787.53;;;28.93
76713;BMP280;65640;43.154;25.658;2023-09-12T09:25:35;100780.59;;;28.99
76713;BMP280;65640;43.154;25.658;2023-09-12T09:28:19;100780.84;;;29.15
76713;BMP280;65640;43.154;25.658;2023-09-12T09:30:47;100775.78;;;29.24
76713;BMP280;65640;43.154;25.658;2023-09-12T09:33:13;100773.81;;;29.28
76713;BMP280;65640;43.154;25.658;2023-09-12T09:35:46;100783.78;;;29.38
76713;BMP280;65640;43.154;25.658;2023-09-12T09:38:12;100780.25;;;29.45
76713;BMP280;65640;43.154;25.658;2023-09-12T09:40:42;100776.56;;;29.21
76713;BMP280;65640;43.154;25.658;2023-09-12T09:43:07;100775.44;;;29.15
76713;BMP280;65640;43.154;25.658;2023-09-12T09:45:43;100777.78;;;29.13
76713;BMP280;65640;43.154;25.658;2023-09-12T09:48:09;100771.03;;;29.42
76713;BMP280;65640;43.154;25.658;2023-09-12T09:50:35;100770.13;;;29.56
76713;BMP280;65640;43.154;25.658;2023-09-12T09:53:04;100774.69;;;29.62
76713;BMP280;65640;43.154;25.658;2023-09-12T09:55:34;100769.63;;;29.71
76713;BMP280;65640;43.154;25.658;2023-09-12T09:57:59;100767.63;;;29.75
76713;BMP280;65640;43.154;25.658;2023-09-12T10:00:25;100769.03;;;29.90
76713;BMP280;65640;43.154;25.658;2023-09-12T10:02:53;100767.50;;;29.89
76713;BMP280;65640;43.154;25.658;2023-09-12T10:05:19;100768.00;;;30.15
76713;BMP280;65640;43.154;25.658;2023-09-12T10:07:49;100760.53;;;30.26
76713;BMP280;65640;43.154;25.658;2023-09-12T10:10:18;100764.69;;;30.34
76713;BMP280;65640;43.154;25.658;2023-09-12T10:12:54;100754.69;;;30.31
76713;BMP280;65640;43.154;25.658;2023-09-12T10:15:21;100762.06;;;30.27
76713;BMP280;65640;43.154;25.658;2023-09-12T10:17:57;100758.47;;;30.37
76713;BMP280;65640;43.154;25.658;2023-09-12T10:20:27;100759.13;;;30.44
76713;BMP280;65640;43.154;25.658;2023-09-12T10:23:05;100754.13;;;30.43
76713;BMP280;65640;43.154;25.658;2023-09-12T10:25:35;100750.72;;;30.39
76713;BMP280;65640;43.154;25.658;2023-09-12T10:28:05;100753.06;;;30.37
76713;BMP280;65640;43.154;25.658;2023-09-12T10:30:32;100747.19;;;30.42
76713;BMP280;65640;43.154;25.658;2023-09-12T10:33:01;100751.13;;;30.64
76713;BMP280;65640;43.154;25.658;2023-09-12T10:35:28;100750.59;;;30.49
76713;BMP280;65640;43.154;25.658;2023-09-12T10:37:55;100749.13;;;30.41
76713;BMP280;65640;43.154;25.658;2023-09-12T10:40:22;100740.00;;;30.32
76713;BMP280;65640;43.154;25.658;2023-09-12T10:42:49;100735.88;;;30.50
76713;BMP280;65640;43.154;25.658;2023-09-12T10:45:15;100745.13;;;30.53
76713;BMP280;65640;43.154;25.658;2023-09-12T10:47:41;100732.69;;;30.59
76713;BMP280;65640;43.154;25.658;2023-09-12T10:50:07;100739.66;;;30.56
76713;BMP280;65640;43.154;25.658;2023-09-12T10:52:33;100732.47;;;30.73
76713;BMP280;65640;43.154;25.658;2023-09-12T10:55:04;100735.56;;;30.98
76713;BMP280;65640;43.154;25.658;2023-09-12T10:57:29;100733.56;;;31.02
76713;BMP280;65640;43.154;25.658;2023-09-12T11:02:42;100729.97;;;30.86
76713;BMP280;65640;43.154;25.658;2023-09-12T11:07:56;100728.16;;;31.02
76713;BMP280;65640;43.154;25.658;2023-09-12T11:10:23;100725.56;;;30.95
76713;BMP280;65640;43.154;25.658;2023-09-12T11:12:51;100724.16;;;31.10
76713;BMP280;65640;43.154;25.658;2023-09-12T11:15:18;100718.97;;;31.19
76713;BMP280;65640;43.154;25.658;2023-09-12T11:17:46;100707.75;;;31.21
76713;BMP280;65640;43.154;25.658;2023-09-12T11:20:12;100708.28;;;31.12
76713;BMP280;65640;43.154;25.658;2023-09-12T11:22:39;100708.44;;;31.25
76713;BMP280;65640;43.154;25.658;2023-09-12T11:25:24;100707.41;;;31.39
76713;BMP280;65640;43.154;25.658;2023-09-12T11:30:28;100698.47;;;31.42
76713;BMP280;65640;43.154;25.658;2023-09-12T11:32:57;100699.94;;;31.26
76713;BMP280;65640;43.154;25.658;2023-09-12T11:35:25;100696.41;;;31.06
76713;BMP280;65640;43.154;25.658;2023-09-12T11:37:58;100694.88;;;31.28
76713;BMP280;65640;43.154;25.658;2023-09-12T11:42:59;100692.38;;;31.38
76713;BMP280;65640;43.154;25.658;2023-09-12T11:45:25;100690.91;;;31.53
76713;BMP280;65640;43.154;25.658;2023-09-12T11:47:51;100685.22;;;31.67
76713;BMP280;65640;43.154;25.658;2023-09-12T11:50:49;100683.00;;;31.62
76713;BMP280;65640;43.154;25.658;2023-09-12T11:53:14;100685.06;;;31.74
76713;BMP280;65640;43.154;25.658;2023-09-12T11:55:44;100684.66;;;31.75
76713;BMP280;65640;43.154;25.658;2023-09-12T11:58:15;100673.00;;;31.59
76713;BMP280;65640;43.154;25.658;2023-09-12T12:00:48;100679.81;;;31.67
76713;BMP280;65640;43.154;25.658;2023-09-12T12:03:15;100671.84;;;31.76
76713;BMP280;65640;43.154;25.658;2023-09-12T12:05:40;100679.22;;;31.95
76713;BMP280;65640;43.154;25.658;2023-09-12T12:08:13;100672.56;;;31.80
76713;BMP280;65640;43.154;25.658;2023-09-12T12:10:38;100666.88;;;31.74
76713;BMP280;65640;43.154;25.658;2023-09-12T12:13:05;100665.59;;;31.79
76713;BMP280;65640;43.154;25.658;2023-09-12T12:15:31;100660.59;;;31.97
76713;BMP280;65640;43.154;25.658;2023-09-12T12:17:57;100657.78;;;32.00
76713;BMP280;65640;43.154;25.658;2023-09-12T12:20:23;100657.75;;;31.84
76713;BMP280;65640;43.154;25.658;2023-09-12T12:22:49;100659.81;;;31.61
76713;BMP280;65640;43.154;25.658;2023-09-12T12:25:17;100654.44;;;31.77
76713;BMP280;65640;43.154;25.658;2023-09-12T12:27:42;100646.81;;;31.91
76713;BMP280;65640;43.154;25.658;2023-09-12T12:30:10;100645.09;;;31.97
76713;BMP280;65640;43.154;25.658;2023-09-12T12:32:39;100644.94;;;32.05
76713;BMP280;65640;43.154;25.658;2023-09-12T12:35:06;100645.00;;;31.85
76713;BMP280;65640;43.154;25.658;2023-09-12T12:37:32;100652.03;;;31.63
76713;BMP280;65640;43.154;25.658;2023-09-12T12:39:59;100649.19;;;31.70
76713;BMP280;65640;43.154;25.658;2023-09-12T12:42:32;100648.91;;;31.64
76713;BMP280;65640;43.154;25.658;2023-09-12T12:44:58;100645.31;;;31.87
76713;BMP280;65640;43.154;25.658;2023-09-12T12:47:23;100645.63;;;32.09
76713;BMP280;65640;43.154;25.658;2023-09-12T12:49:52;100645.50;;;32.16
76713;BMP280;65640;43.154;25.658;2023-09-12T12:52:26;100640.28;;;31.89
76713;BMP280;65640;43.154;25.658;2023-09-12T12:54:52;100637.84;;;31.94
76713;BMP280;65640;43.154;25.658;2023-09-12T12:57:20;100637.94;;;32.07
76713;BMP280;65640;43.154;25.658;2023-09-12T12:59:49;100632.63;;;32.00
76713;BMP280;65640;43.154;25.658;2023-09-12T13:02:16;100632.56;;;32.04
76713;BMP280;65640;43.154;25.658;2023-09-12T13:04:41;100629.59;;;31.98
76713;BMP280;65640;43.154;25.658;2023-09-12T13:07:07;100630.19;;;32.06
76713;BMP280;65640;43.154;25.658;2023-09-12T13:09:32;100631.06;;;32.03
76713;BMP280;65640;43.154;25.658;2023-09-12T13:11:58;100632.44;;;31.75
76713;BMP280;65640;43.154;25.658;2023-09-12T13:14:24;100629.78;;;31.91
76713;BMP280;65640;43.154;25.658;2023-09-12T13:16:56;100627.22;;;32.00
76713;BMP280;65640;43.154;25.658;2023-09-12T13:19:21;100635.88;;;31.95
76713;BMP280;65640;43.154;25.658;2023-09-12T13:21:47;100627.22;;;32.00
76713;BMP280;65640;43.154;25.658;2023-09-12T13:24:12;100624.34;;;31.91
76713;BMP280;65640;43.154;25.658;2023-09-12T13:26:38;100629.50;;;31.85
76713;BMP280;65640;43.154;25.658;2023-09-12T13:29:05;100629.78;;;31.91
76713;BMP280;65640;43.154;25.658;2023-09-12T13:31:30;100628.41;;;31.99
76713;BMP280;65640;43.154;25.658;2023-09-12T13:33:57;100616.81;;;31.98
76713;BMP280;65640;43.154;25.658;2023-09-12T13:36:22;100624.88;;;32.02
76713;BMP280;65640;43.154;25.658;2023-09-12T13:38:49;100631.69;;;32.10
76713;BMP280;65640;43.154;25.658;2023-09-12T13:41:16;100625.22;;;32.04
76713;BMP280;65640;43.154;25.658;2023-09-12T13:43:42;100620.38;;;31.76
76713;BMP280;65640;43.154;25.658;2023-09-12T13:46:10;100618.59;;;31.89
76713;BMP280;65640;43.154;25.658;2023-09-12T13:48:36;100619.78;;;31.88
76713;BMP280;65640;43.154;25.658;2023-09-12T13:51:01;100611.16;;;31.93
76713;BMP280;65640;43.154;25.658;2023-09-12T13:53:27;100613.19;;;31.89
76713;BMP280;65640;43.154;25.658;2023-09-12T13:55:53;100622.66;;;31.97
76713;BMP280;65640;43.154;25.658;2023-09-12T13:58:18;100619.84;;;31.84